Airfield :
LOGIN :

Register | Disclaimer

   EN    FR    IT 

 










Legend :    VFR   Marginal VFR   IFR   Intensive IFR   Very Intensive IFR
Visi :
Ceiling :
>= 8 km
>= 3000ft
5 to 8 km
1000 to 3000 ft
1500m to 5 km
500 to 1000 ft
800 to 1500m
200 to 500 ft
< 800m
< 200 ft
Symbols :   Thunderstorms  Fog  Heavy snow  Heavy precipitations  Wind > 20 kt
SIGMETs :     Misc.  Thunderstorms  Icing  Turbulence  Mountain Waves  Volcanic Ashes







- Airport Elevation : 1906 ft
- IATA code : INN


LOWI - Innsbruck

CURRENT METAR :
  • 200150Z AUTO VRB02KT 9999 FEW009 SCT012 BKN070 13/12 Q1023

EXPIRED METARs :
  • 200120Z AUTO VRB02KT 9999 FEW006 BKN034 13/12 Q1023
  • 200050Z AUTO 26003KT 220V280 9999 FEW006 BKN009 13/12 Q1022
  • 200020Z AUTO VRB01KT 9999 FEW005 BKN019 14/13 Q1023
  • 192350Z AUTO VRB01KT 9999 FEW004 SCT016 BKN080 14/13 Q1022
  • 192320Z AUTO 16003KT 100V180 9999 FEW006 SCT046 BKN070 14/13 Q1022

TAF AMD TAF LOWI
Valid from the 20 at 01:00 until the 21 at 00:00 UTC


200102Z 2001/2024 VRB02KT 9999 FEW010 SCT020 BKN070 TX19/2014Z TN09/2005Z
TEMPO 2001/2006 SCT007 BKN009
BECMG 2008/2010 08008KT FEW050 SCT070
TEMPO 2010/2017 VRB12KT -SHRA SCT050 SCT060TCU
No reported NOTAMs for that airfield.



MET'MAP, your aeronautical weather chart ! - Copyright ORBIFLY December 2007 - Disclaimer

ORBIFLY MET'MAP TEAM :

Programming & Development : Alexandra Zaïnal
Concept & Development : Baudouin d'Aumeries
Co-Development & Prog : Marc-Olivier Méhu
Technical & hardware support : Manuel Goepfert

Contact : metmap@orbifly.com




SOURCES & CREDITS :

   NOAA